• Join FlightAware (Why Join?)
  • Login
  • US Flag 
03:14AM EDT


 

Airport Tracker/Info


-or-


 

Live Flight TrackerFlight Track Log ✈ UAL3589 ✈ 05-May-2013 ✈ KEWR - KMDT

Flight Track Log - Related Links

Times and Time Zones

All times are in EDT time to prevent confusion due to time zone crossing. See the UAL3589 flight status page for this flight to view local times or setup timezone preferences in your user account.

Time Position Orientation Groundspeed Altitude Reporting Facility
EDT Latitude Longitude Course Direction KTS MPH feet Rate Location/Type
09:53PM 40.6667 -74.1833 255° West 144 166 1,000  Level New York TRACON
09:54PM 40.6333 -74.2167 217° Southwest 191 220 2,300 1,260 Climbing New York TRACON
09:55PM 40.6667 -74.2833 303° West 202 232 3,600 1,500 Climbing New York TRACON
09:56PM 40.6833 -74.3500 288° West 194 223 5,400 1,560 Climbing New York TRACON
09:57PM 40.7000 -74.4167 288° West 195 224 6,800 780 Climbing New York TRACON
09:58PM 40.6833 -74.4833 252° West 231 266 7,000 600 Climbing New York TRACON
09:59PM 40.5784 -74.6749 255° West  Level FlightAware Approximate
09:59PM 40.6500 -74.5667 242° Southwest 233 268 8,000  Level New York TRACON
10:00PM 40.6167 -74.6333 237° Southwest 251 289 8,000  Level New York TRACON
10:02PM 40.5698 -74.7272 237° Southwest  Level FlightAware Approximate
10:09PM 40.5522 -75.3478 273° West  Level FlightAware Approximate
10:10PM 40.5561 -75.4362 273° West  Level FlightAware Approximate
10:11PM 40.5599 -75.5247 273° West  Level FlightAware Approximate
10:12PM 40.5637 -75.6132 273° West  Level FlightAware Approximate
10:13PM 40.5619 -75.7007 250° West  Level FlightAware Approximate
10:14PM 40.5388 -75.7840 250° West  Level FlightAware Approximate
10:15PM 40.5157 -75.8672 250° West  Level FlightAware Approximate
10:16PM 40.4925 -75.9503 250° West  Level FlightAware Approximate
10:17PM 40.4758 -76.0358 259° West  Level FlightAware Approximate
10:18PM 40.4612 -76.1220 252° West  Level FlightAware Approximate
10:19PM 40.4373 -76.2047 246° West  Level FlightAware Approximate
10:20PM 40.4103 -76.2857 246° West  Level FlightAware Approximate
10:21PM 40.3862 -76.3682 251° West  Level FlightAware Approximate
10:22PM 40.3639 -76.4516 251° West  Level FlightAware Approximate
10:23PM 40.3415 -76.5350 251° West  Level FlightAware Approximate
10:24PM 40.3190 -76.6182 251° West  Level FlightAware Approximate
10:25PM 40.2965 -76.7015 250° West  Level FlightAware Approximate
10:26PM 40.2833 -76.7868 270° West  Level FlightAware Approximate
10:27PM 40.2833 -76.8751 270° West  Level FlightAware Approximate
10:28PM 40.2876 -76.9628 281° West  Level FlightAware Approximate
10:29PM 40.2999 -77.0496 281° West  Level FlightAware Approximate
10:30PM 40.2722 -77.0056 118° Southeast  Level FlightAware Approximate
10:31PM 40.2463 -76.9259 123° Southeast  Level FlightAware Approximate
10:32PM 40.2234 -76.8467 123° Southeast  Level FlightAware Approximate
10:33PM 40.1911 -76.7694 118° Southeast  Level FlightAware Approximate
10:34PM 40.1932 -76.7626 118° Southeast  Level Estimated
10:35PM 40.1932 -76.7626 118° Southeast  Level Estimated
10:36PM 40.1932 -76.7626 118° Southeast  Level Estimated